createdAt,value
2018-04-12T00:01:20.989Z,8.92
2018-04-12T00:03:48.595Z,8.94
2018-04-12T00:06:16.173Z,8.89
2018-04-12T00:08:43.780Z,8.79
2018-04-12T00:11:11.358Z,8.77
2018-04-12T00:13:38.950Z,8.74
2018-04-12T00:16:06.521Z,8.69
2018-04-12T00:18:34.106Z,8.64
2018-04-12T00:21:01.812Z,8.65
2018-04-12T00:23:29.462Z,8.60
2018-04-12T00:25:57.035Z,8.55
2018-04-12T00:28:24.616Z,8.53
2018-04-12T00:30:52.198Z,8.54
2018-04-12T00:33:19.813Z,8.54
2018-04-12T00:35:47.405Z,8.55
2018-04-12T00:38:15.015Z,8.58
2018-04-12T00:40:42.601Z,8.53
2018-04-12T00:43:10.263Z,8.54
2018-04-12T00:45:37.843Z,8.51
2018-04-12T00:48:05.432Z,8.44
2018-04-12T00:50:33.026Z,8.43
2018-04-12T00:53:00.617Z,8.40
2018-04-12T00:55:28.207Z,8.41
2018-04-12T00:57:55.818Z,8.40
2018-04-12T01:00:23.376Z,8.38
2018-04-12T01:02:50.940Z,8.35
2018-04-12T01:05:18.512Z,8.36
2018-04-12T01:07:46.108Z,8.32
2018-04-12T01:10:13.670Z,8.32
2018-04-12T01:12:41.272Z,8.32
2018-04-12T01:15:08.858Z,8.29
2018-04-12T01:17:36.439Z,8.25
2018-04-12T01:20:04.148Z,8.28
2018-04-12T01:22:31.708Z,8.29
2018-04-12T01:24:59.293Z,8.21
2018-04-12T01:27:27.167Z,8.23
2018-04-12T01:29:54.729Z,8.21
2018-04-12T01:32:22.460Z,8.17
2018-04-12T01:34:50.050Z,8.19
2018-04-12T01:37:17.613Z,8.16
2018-04-12T01:39:45.205Z,8.13
2018-04-12T01:42:12.768Z,8.16
2018-04-12T01:44:40.356Z,8.11
2018-04-12T01:47:07.919Z,8.10
2018-04-12T01:49:35.485Z,8.04
2018-04-12T01:52:03.076Z,8.05
2018-04-12T01:54:30.648Z,7.96
2018-04-12T01:56:58.277Z,7.93
2018-04-12T01:59:26.083Z,7.92
2018-04-12T02:01:53.702Z,7.93
2018-04-12T02:04:21.268Z,7.89
2018-04-12T02:06:48.954Z,7.88
2018-04-12T02:09:16.590Z,7.82
2018-04-12T02:11:44.451Z,7.83
2018-04-12T02:14:12.065Z,7.83
2018-04-12T02:16:39.636Z,7.78
2018-04-12T02:19:07.235Z,7.70
2018-04-12T02:21:34.793Z,7.70
2018-04-12T02:24:02.387Z,7.67
2018-04-12T02:26:30.004Z,7.65
2018-04-12T02:28:57.713Z,7.61
2018-04-12T02:31:25.289Z,7.59
2018-04-12T02:33:52.907Z,7.58
2018-04-12T02:36:20.500Z,7.56
2018-04-12T02:38:48.069Z,7.52
2018-04-12T02:41:15.653Z,7.53
2018-04-12T02:43:43.260Z,7.50
2018-04-12T02:46:10.824Z,7.54
2018-04-12T02:48:38.436Z,7.48
2018-04-12T02:51:06.076Z,7.44
2018-04-12T02:53:33.642Z,7.41
2018-04-12T02:56:01.196Z,7.40
2018-04-12T02:58:28.757Z,7.42
2018-04-12T03:00:56.343Z,7.42
2018-04-12T03:03:23.913Z,7.38
2018-04-12T03:05:51.469Z,7.42
2018-04-12T03:08:19.203Z,7.30
2018-04-12T03:10:46.812Z,7.34
2018-04-12T03:13:14.446Z,7.32
2018-04-12T03:15:42.024Z,7.30
2018-04-12T03:18:09.581Z,7.33
2018-04-12T03:20:37.133Z,7.25
2018-04-12T03:23:04.714Z,7.27
2018-04-12T03:25:32.327Z,7.21
2018-04-12T03:30:41.851Z,7.15
2018-04-12T03:33:09.410Z,7.21
2018-04-12T03:35:37.071Z,7.23
2018-04-12T03:38:04.675Z,7.15
2018-04-12T03:40:32.349Z,7.17
2018-04-12T03:42:59.954Z,7.16
2018-04-12T03:45:27.548Z,7.17
2018-04-12T03:47:55.121Z,7.12
2018-04-12T03:50:22.730Z,7.16
2018-04-12T03:52:50.332Z,7.21
2018-04-12T03:55:17.899Z,7.13
2018-04-12T03:57:45.454Z,7.17
2018-04-12T04:00:20.145Z,7.14
2018-04-12T04:02:48.032Z,7.16
2018-04-12T04:05:15.771Z,7.12
2018-04-12T04:07:43.591Z,7.19
2018-04-12T04:10:11.447Z,7.16
2018-04-12T04:12:39.014Z,7.15
2018-04-12T04:15:27.018Z,7.18
2018-04-12T04:18:06.428Z,7.22
2018-04-12T04:20:45.864Z,7.22
2018-04-12T04:23:13.490Z,7.18
2018-04-12T04:25:41.322Z,7.16
2018-04-12T04:28:08.904Z,7.09
2018-04-12T04:30:36.451Z,7.09
2018-04-12T04:33:04.032Z,7.15
2018-04-12T04:35:31.601Z,7.14
2018-04-12T04:38:01.951Z,7.18
2018-04-12T04:40:29.761Z,7.20
2018-04-12T04:42:57.328Z,7.17
2018-04-12T04:45:24.898Z,7.19
2018-04-12T04:47:52.434Z,7.23
2018-04-12T04:50:19.998Z,7.20
2018-04-12T04:52:47.542Z,7.13
2018-04-12T04:55:15.081Z,7.21
2018-04-12T04:57:42.626Z,7.14
2018-04-12T05:00:10.195Z,7.21
2018-04-12T05:02:37.815Z,7.22
2018-04-12T05:05:05.400Z,7.21
2018-04-12T05:07:32.991Z,7.21
2018-04-12T05:10:00.543Z,7.29
2018-04-12T05:12:28.097Z,7.29
2018-04-12T05:14:55.648Z,7.26
2018-04-12T05:17:23.190Z,7.32
2018-04-12T05:19:50.746Z,7.32
2018-04-12T05:22:18.333Z,7.34
2018-04-12T05:24:45.885Z,7.31
2018-04-12T05:27:13.469Z,7.35
2018-04-12T05:29:41.031Z,7.35
2018-04-12T05:32:09.679Z,7.39
2018-04-12T05:34:37.351Z,7.36
2018-04-12T05:37:04.908Z,7.35
2018-04-12T05:39:32.648Z,7.35
2018-04-12T05:42:00.210Z,7.33
2018-04-12T05:44:28.044Z,7.37
2018-04-12T05:46:55.608Z,7.38
2018-04-12T05:49:23.455Z,7.40
2018-04-12T05:51:51.038Z,7.45
2018-04-12T05:54:18.606Z,7.46
2018-04-12T05:56:46.340Z,7.49
2018-04-12T05:59:13.930Z,7.51
2018-04-12T06:01:41.517Z,7.54
2018-04-12T06:04:09.063Z,7.60
2018-04-12T06:06:36.650Z,7.64
2018-04-12T06:09:04.208Z,7.67
2018-04-12T06:11:31.820Z,7.71
2018-04-12T06:13:59.569Z,7.77
2018-04-12T06:16:27.233Z,7.77
2018-04-12T06:18:54.823Z,7.84
2018-04-12T06:21:22.417Z,7.87
2018-04-12T06:23:49.967Z,7.91
2018-04-12T06:26:17.537Z,7.93
2018-04-12T06:28:45.104Z,7.97
2018-04-12T06:31:12.763Z,7.96
2018-04-12T06:33:40.322Z,8.03
2018-04-12T06:36:07.887Z,8.05
2018-04-12T06:38:35.513Z,8.02
2018-04-12T06:41:03.395Z,8.09
2018-04-12T06:43:31.010Z,8.09
2018-04-12T06:45:58.593Z,8.15
2018-04-12T06:48:26.161Z,8.24
2018-04-12T06:50:53.740Z,8.22
2018-04-12T06:53:21.436Z,8.28
2018-04-12T06:55:49.755Z,8.30
2018-04-12T06:58:17.301Z,8.36
2018-04-12T07:00:44.864Z,8.52
2018-04-12T07:03:12.466Z,8.39
2018-04-12T07:05:40.041Z,8.53
2018-04-12T07:08:07.608Z,8.63
2018-04-12T07:10:35.378Z,8.68
2018-04-12T07:13:03.158Z,8.83
2018-04-12T07:15:30.715Z,8.85
2018-04-12T07:17:58.358Z,8.86
2018-04-12T07:20:25.902Z,8.96
2018-04-12T07:22:53.476Z,8.88
2018-04-12T07:25:21.057Z,9.02
2018-04-12T07:27:48.697Z,9.08
2018-04-12T07:30:16.286Z,9.07
2018-04-12T07:32:43.966Z,9.11
2018-04-12T07:35:11.577Z,9.18
2018-04-12T07:37:39.165Z,9.14
2018-04-12T07:40:06.914Z,9.25
2018-04-12T07:42:34.490Z,9.33
2018-04-12T07:45:02.251Z,9.35
2018-04-12T07:47:29.829Z,9.35
2018-04-12T07:49:57.420Z,9.37
2018-04-12T07:52:25.066Z,9.40
2018-04-12T07:54:52.693Z,9.48
2018-04-12T07:57:20.315Z,9.47
2018-04-12T07:59:48.368Z,9.43
2018-04-12T08:02:15.963Z,9.51
2018-04-12T08:04:43.553Z,9.63
2018-04-12T08:07:11.255Z,9.77
2018-04-12T08:09:38.827Z,9.74
2018-04-12T08:12:06.445Z,9.84
2018-04-12T08:14:34.133Z,9.78
2018-04-12T08:17:01.837Z,9.96
2018-04-12T08:19:29.620Z,9.94
2018-04-12T08:21:57.255Z,10.24
2018-04-12T08:24:24.844Z,10.24
2018-04-12T08:26:52.561Z,10.33
2018-04-12T08:29:20.168Z,10.46
2018-04-12T08:31:47.762Z,10.39
2018-04-12T08:34:15.452Z,10.71
2018-04-12T08:36:43.109Z,10.89
2018-04-12T08:39:10.796Z,11.19
2018-04-12T08:41:38.434Z,11.23
2018-04-12T08:44:06.039Z,11.18
2018-04-12T08:46:33.771Z,11.31
2018-04-12T08:49:01.477Z,11.15
2018-04-12T08:51:29.174Z,11.29
2018-04-12T08:53:56.898Z,11.76
2018-04-12T08:56:24.644Z,11.63
2018-04-12T08:58:52.291Z,11.90
2018-04-12T09:01:19.958Z,11.63
2018-04-12T09:03:47.628Z,11.69
2018-04-12T09:06:15.207Z,11.57
2018-04-12T09:08:43.092Z,12.11
2018-04-12T09:11:10.726Z,11.95
2018-04-12T09:13:39.304Z,12.04
2018-04-12T09:16:06.941Z,11.86
2018-04-12T09:18:34.557Z,12.04
2018-04-12T09:21:02.128Z,12.19
2018-04-12T09:23:30.094Z,12.16
2018-04-12T09:25:58.787Z,12.38
2018-04-12T09:28:26.383Z,12.56
2018-04-12T09:30:54.011Z,12.46
2018-04-12T09:33:21.665Z,12.65
2018-04-12T09:35:49.291Z,12.88
2018-04-12T09:38:16.884Z,12.83
2018-04-12T09:40:44.539Z,12.80
2018-04-12T09:43:12.169Z,12.95
2018-04-12T09:45:39.796Z,13.05
2018-04-12T09:48:07.394Z,13.23
2018-04-12T09:50:35.243Z,13.28
2018-04-12T09:53:03.027Z,13.55
2018-04-12T09:55:30.729Z,13.56
2018-04-12T09:58:13.608Z,13.77
2018-04-12T10:00:41.381Z,13.81
2018-04-12T10:03:13.679Z,13.93
2018-04-12T10:05:46.957Z,13.87
2018-04-12T10:08:20.271Z,14.09
2018-04-12T10:10:47.932Z,14.11
2018-04-12T10:13:15.516Z,14.18
2018-04-12T10:15:43.104Z,14.24
2018-04-12T10:18:10.688Z,14.28
2018-04-12T10:20:38.297Z,14.35
2018-04-12T10:23:06.858Z,14.46
2018-04-12T10:25:34.588Z,14.59
2018-04-12T10:28:02.231Z,14.54
2018-04-12T10:30:29.798Z,14.94
2018-04-12T10:32:57.614Z,15.05
2018-04-12T10:35:25.211Z,15.27
2018-04-12T10:37:52.828Z,15.25
2018-04-12T10:40:20.482Z,15.19
2018-04-12T10:42:48.198Z,15.19
2018-04-12T10:45:15.874Z,15.14
2018-04-12T10:47:43.494Z,15.21
2018-04-12T10:50:11.281Z,15.29
2018-04-12T10:52:40.054Z,15.42
2018-04-12T10:55:07.735Z,15.51
2018-04-12T10:57:35.380Z,15.58
2018-04-12T11:00:03.009Z,15.72
2018-04-12T11:02:30.668Z,15.85
2018-04-12T11:04:58.346Z,15.87
2018-04-12T11:07:25.972Z,16.01
2018-04-12T11:09:53.633Z,16.17
2018-04-12T11:12:21.255Z,16.38
2018-04-12T11:14:48.991Z,16.68
2018-04-12T11:17:16.668Z,16.68
2018-04-12T11:19:44.329Z,16.68
2018-04-12T11:22:12.024Z,16.46
2018-04-12T11:24:39.645Z,16.45
2018-04-12T11:27:07.229Z,16.57
2018-04-12T11:29:34.796Z,16.83
2018-04-12T11:32:02.423Z,16.95
2018-04-12T11:34:30.146Z,17.19
2018-04-12T11:36:57.891Z,17.28
2018-04-12T11:39:25.591Z,17.25
2018-04-12T11:41:53.222Z,17.33
2018-04-12T11:44:21.014Z,17.01
2018-04-12T11:46:48.636Z,17.14
2018-04-12T11:49:16.315Z,17.11
2018-04-12T11:51:44.055Z,17.07
2018-04-12T11:54:11.661Z,17.10
2018-04-12T11:56:39.497Z,17.12
2018-04-12T11:59:07.342Z,17.05
2018-04-12T12:01:34.908Z,17.19
2018-04-12T12:04:02.590Z,17.36
2018-04-12T12:06:30.184Z,17.38
2018-04-12T12:08:58.017Z,17.65
2018-04-12T12:11:25.721Z,17.80
2018-04-12T12:13:54.002Z,17.70
2018-04-12T12:16:21.859Z,17.75
2018-04-12T12:18:49.673Z,17.94
2018-04-12T12:21:17.352Z,17.92
2018-04-12T12:23:45.168Z,18.05
2018-04-12T12:26:12.963Z,18.13
2018-04-12T12:28:40.538Z,18.12
2018-04-12T12:31:08.198Z,18.27
2018-04-12T12:33:35.976Z,18.47
2018-04-12T12:36:03.520Z,18.65
2018-04-12T12:38:31.084Z,18.65
2018-04-12T12:40:58.880Z,18.72
2018-04-12T12:43:26.569Z,18.95
2018-04-12T12:45:54.137Z,19.07
2018-04-12T12:48:21.777Z,19.30
2018-04-12T12:50:49.443Z,19.12
2018-04-12T12:53:17.134Z,19.34
2018-04-12T12:55:44.821Z,19.51
2018-04-12T12:58:12.464Z,19.24
2018-04-12T13:00:40.100Z,19.18
2018-04-12T13:03:07.922Z,19.29
2018-04-12T13:05:35.738Z,19.17
2018-04-12T13:08:03.540Z,19.44
2018-04-12T13:10:31.207Z,19.42
2018-04-12T13:12:58.945Z,19.79
2018-04-12T13:15:26.737Z,19.84
2018-04-12T13:17:54.327Z,20.06
2018-04-12T13:20:21.905Z,20.21
2018-04-12T13:22:50.645Z,20.30
2018-04-12T13:25:22.490Z,20.22
2018-04-12T13:27:50.106Z,20.46
2018-04-12T13:30:17.765Z,20.48
2018-04-12T13:32:45.414Z,20.55
2018-04-12T13:35:13.004Z,20.55
2018-04-12T13:37:40.653Z,20.57
2018-04-12T13:40:08.311Z,20.61
2018-04-12T13:42:36.021Z,20.73
2018-04-12T13:45:03.720Z,20.67
2018-04-12T13:47:31.363Z,20.70
2018-04-12T13:49:58.992Z,20.78
2018-04-12T13:52:26.717Z,20.83
2018-04-12T13:54:54.418Z,20.76
2018-04-12T13:57:22.188Z,20.70
2018-04-12T13:59:49.738Z,20.77
2018-04-12T14:02:17.719Z,20.73
2018-04-12T14:04:49.142Z,20.67
2018-04-12T14:07:16.775Z,20.72
2018-04-12T14:09:44.606Z,20.80
2018-04-12T14:12:12.329Z,20.81
2018-04-12T14:14:39.902Z,20.77
2018-04-12T14:17:07.584Z,20.80
2018-04-12T14:19:35.388Z,20.79
2018-04-12T14:22:02.929Z,20.84
2018-04-12T14:24:30.506Z,20.90
2018-04-12T14:26:58.147Z,20.91
2018-04-12T14:29:25.809Z,20.88
2018-04-12T14:31:53.397Z,20.95
2018-04-12T14:34:21.108Z,20.79
2018-04-12T14:36:48.752Z,20.78
2018-04-12T14:39:16.443Z,20.78
2018-04-12T14:41:44.061Z,20.70
2018-04-12T14:44:11.647Z,20.77
2018-04-12T14:46:39.287Z,20.71
2018-04-12T14:49:07.028Z,20.76
2018-04-12T14:51:34.943Z,20.87
2018-04-12T14:54:02.558Z,20.88
2018-04-12T14:56:31.044Z,20.98
2018-04-12T14:58:58.624Z,20.91
2018-04-12T15:01:26.185Z,20.80
2018-04-12T15:03:53.906Z,20.81
2018-04-12T15:06:21.615Z,20.82
2018-04-12T15:08:49.290Z,20.79
2018-04-12T15:11:16.825Z,20.66
2018-04-12T15:13:44.427Z,20.73
2018-04-12T15:16:12.053Z,20.62
2018-04-12T15:18:39.770Z,20.61
2018-04-12T15:21:07.547Z,20.67
2018-04-12T15:23:35.084Z,20.52
2018-04-12T15:26:02.680Z,20.55
2018-04-12T15:28:30.418Z,20.49
2018-04-12T15:30:58.038Z,20.57
2018-04-12T15:33:25.644Z,20.65
2018-04-12T15:35:53.207Z,20.62
2018-04-12T15:38:20.868Z,20.67
2018-04-12T15:40:48.990Z,20.66
2018-04-12T15:43:17.165Z,20.69
2018-04-12T15:45:44.876Z,20.69
2018-04-12T15:48:12.532Z,20.75
2018-04-12T15:50:40.184Z,20.69
2018-04-12T15:53:07.871Z,20.61
2018-04-12T15:55:35.468Z,20.73
2018-04-12T15:58:03.124Z,20.77
2018-04-12T16:00:30.840Z,20.64
2018-04-12T16:02:58.484Z,20.65
2018-04-12T16:05:26.036Z,20.65
2018-04-12T16:07:53.783Z,20.70
2018-04-12T16:10:21.404Z,20.75
2018-04-12T16:12:49.109Z,20.76
2018-04-12T16:15:16.661Z,20.75
2018-04-12T16:17:44.229Z,20.71
2018-04-12T16:20:11.790Z,20.77
2018-04-12T16:22:39.348Z,20.76
2018-04-12T16:25:06.915Z,20.79
2018-04-12T16:27:34.508Z,20.75
2018-04-12T16:30:02.235Z,20.73
2018-04-12T16:32:29.844Z,20.73
2018-04-12T16:34:57.515Z,20.70
2018-04-12T16:37:25.209Z,20.67
2018-04-12T16:39:52.854Z,20.69
2018-04-12T16:42:20.441Z,20.68
2018-04-12T16:44:48.094Z,20.65
2018-04-12T16:47:15.820Z,20.61
2018-04-12T16:49:43.557Z,20.63
2018-04-12T16:52:11.216Z,20.65
2018-04-12T16:54:38.766Z,20.57
2018-04-12T16:57:06.570Z,20.47
2018-04-12T16:59:34.944Z,20.47
2018-04-12T17:02:02.627Z,20.48
2018-04-12T17:04:30.257Z,20.45
2018-04-12T17:06:58.180Z,20.43
2018-04-12T17:09:26.478Z,20.41
2018-04-12T17:11:54.030Z,20.43
2018-04-12T17:14:21.609Z,20.34
2018-04-12T17:16:49.337Z,20.32
2018-04-12T17:19:16.978Z,20.28
2018-04-12T17:21:47.176Z,20.23
2018-04-12T17:24:14.764Z,20.22
2018-04-12T17:26:42.381Z,20.17
2018-04-12T17:29:10.094Z,20.13
2018-04-12T17:31:37.763Z,20.10
2018-04-12T17:34:05.351Z,20.09
2018-04-12T17:36:32.903Z,20.05
2018-04-12T17:39:01.419Z,20.03
2018-04-12T17:41:29.093Z,20.00
2018-04-12T17:43:56.680Z,19.96
2018-04-12T17:46:24.248Z,19.90
2018-04-12T17:48:51.847Z,19.86
2018-04-12T17:51:19.741Z,19.79
2018-04-12T17:53:47.403Z,19.75
2018-04-12T17:56:14.967Z,19.78
2018-04-12T17:58:42.550Z,19.70
2018-04-12T18:01:11.081Z,19.68
2018-04-12T18:03:38.713Z,19.63
2018-04-12T18:06:06.291Z,19.58
2018-04-12T18:08:33.841Z,19.53
2018-04-12T18:11:01.412Z,19.50
2018-04-12T18:13:29.516Z,19.47
2018-04-12T18:15:57.159Z,19.42
2018-04-12T18:18:24.737Z,19.38
2018-04-12T18:20:52.307Z,19.38
2018-04-12T18:23:19.953Z,19.37
2018-04-12T18:25:47.549Z,19.36
2018-04-12T18:28:15.210Z,19.35
2018-04-12T18:30:42.757Z,19.26
2018-04-12T18:33:10.405Z,19.21
2018-04-12T18:35:38.362Z,19.16
2018-04-12T18:38:05.947Z,19.11
2018-04-12T18:40:33.515Z,19.10
2018-04-12T18:43:01.065Z,19.08
2018-04-12T18:45:28.633Z,19.06
2018-04-12T18:47:56.311Z,19.03
2018-04-12T18:50:24.004Z,19.01
2018-04-12T18:52:51.702Z,18.98
2018-04-12T18:55:19.286Z,18.95
2018-04-12T18:57:46.919Z,18.94
2018-04-12T19:00:14.506Z,18.96
2018-04-12T19:02:42.041Z,18.93
2018-04-12T19:05:09.667Z,18.94
2018-04-12T19:07:37.300Z,18.90
2018-04-12T19:10:04.934Z,18.88
2018-04-12T19:12:32.482Z,18.86
2018-04-12T19:15:00.051Z,18.86
2018-04-12T19:17:27.710Z,18.80
2018-04-12T19:19:56.285Z,18.74
2018-04-12T19:22:24.432Z,18.73
2018-04-12T19:24:52.048Z,18.74
2018-04-12T19:27:19.663Z,18.69
2018-04-12T19:29:47.285Z,18.68
2018-04-12T19:32:15.478Z,18.64
2018-04-12T19:34:43.198Z,18.63
2018-04-12T19:37:11.233Z,18.59
2018-04-12T19:39:38.829Z,18.55
2018-04-12T19:42:06.529Z,18.54
2018-04-12T19:44:34.117Z,18.50
2018-04-12T19:47:01.818Z,18.44
2018-04-12T19:49:29.568Z,18.40
2018-04-12T19:51:57.128Z,18.36
2018-04-12T19:54:24.829Z,18.36
2018-04-12T19:56:52.448Z,18.32
2018-04-12T19:59:20.021Z,18.28
2018-04-12T20:01:47.709Z,18.25
2018-04-12T20:04:15.365Z,18.24
2018-04-12T20:06:43.046Z,18.25
2018-04-12T20:09:10.761Z,18.19
2018-04-12T20:11:38.419Z,18.07
2018-04-12T20:14:06.202Z,18.08
2018-04-12T20:16:33.945Z,18.04
2018-04-12T20:19:02.097Z,18.01
2018-04-12T20:21:29.798Z,17.96
2018-04-12T20:23:57.689Z,17.90
2018-04-12T20:26:25.335Z,17.94
2018-04-12T20:28:52.902Z,18.03
2018-04-12T20:31:20.475Z,18.06
2018-04-12T20:33:48.061Z,18.00
2018-04-12T20:36:15.662Z,17.98
2018-04-12T20:38:44.135Z,17.94
2018-04-12T20:41:11.792Z,17.94
2018-04-12T20:43:39.388Z,17.89
2018-04-12T20:46:07.020Z,17.84
2018-04-12T20:48:34.735Z,17.76
2018-04-12T20:51:02.686Z,17.78
2018-04-12T20:53:30.365Z,17.77
2018-04-12T20:55:57.931Z,17.77
2018-04-12T20:58:25.520Z,17.82
2018-04-12T21:00:53.156Z,17.82
2018-04-12T21:03:20.774Z,17.81
2018-04-12T21:05:48.351Z,17.78
2018-04-12T21:08:15.981Z,17.75
2018-04-12T21:10:43.521Z,17.75
2018-04-12T21:13:11.357Z,17.75
2018-04-12T21:15:39.016Z,17.68
2018-04-12T21:18:06.630Z,17.70
2018-04-12T21:20:34.184Z,17.75
2018-04-12T21:23:01.827Z,17.80
2018-04-12T21:25:29.427Z,17.71
2018-04-12T21:27:57.021Z,17.75
2018-04-12T21:30:24.646Z,17.72
2018-04-12T21:32:52.363Z,17.72
2018-04-12T21:35:20.040Z,17.76
2018-04-12T21:37:47.596Z,17.75
2018-04-12T21:40:15.223Z,17.76
2018-04-12T21:42:42.880Z,17.79
2018-04-12T21:45:10.522Z,18.44
2018-04-12T21:47:38.175Z,18.86
2018-04-12T21:50:05.748Z,18.53
2018-04-12T21:52:33.316Z,18.37
2018-04-12T21:55:01.151Z,17.73
2018-04-12T21:57:28.796Z,17.09
2018-04-12T21:59:56.384Z,16.83
2018-04-12T22:02:23.987Z,16.62
2018-04-12T22:04:51.540Z,16.69
2018-04-12T22:07:19.085Z,16.53
2018-04-12T22:09:47.090Z,16.38
2018-04-12T22:12:14.642Z,16.33
2018-04-12T22:14:42.213Z,16.08
2018-04-12T22:17:09.737Z,16.00
2018-04-12T22:19:37.297Z,15.93
2018-04-12T22:22:04.848Z,15.95
2018-04-12T22:24:32.409Z,15.76
2018-04-12T22:26:59.972Z,15.85
2018-04-12T22:29:27.541Z,15.78
2018-04-12T22:31:55.110Z,15.69
2018-04-12T22:34:22.687Z,15.79
2018-04-12T22:36:50.267Z,15.81
2018-04-12T22:39:17.806Z,15.86
2018-04-12T22:41:45.402Z,15.80
2018-04-12T22:44:12.972Z,15.67
2018-04-12T22:46:40.535Z,15.69
2018-04-12T22:49:08.105Z,15.70
2018-04-12T22:51:35.641Z,15.62
2018-04-12T22:54:03.218Z,15.61
2018-04-12T22:56:30.754Z,15.60
2018-04-12T22:58:58.314Z,15.66
2018-04-12T23:01:25.881Z,15.70
2018-04-12T23:03:53.470Z,15.62
2018-04-12T23:06:21.016Z,15.37
2018-04-12T23:08:48.588Z,15.26
2018-04-12T23:11:16.145Z,15.23
2018-04-12T23:13:43.748Z,15.33
2018-04-12T23:16:11.298Z,15.38
2018-04-12T23:18:38.850Z,15.38
2018-04-12T23:21:06.442Z,15.41
2018-04-12T23:23:33.975Z,15.40
2018-04-12T23:26:01.557Z,15.45
2018-04-12T23:28:29.103Z,15.26
2018-04-12T23:30:56.675Z,15.15
2018-04-12T23:33:24.260Z,15.08
2018-04-12T23:35:51.828Z,15.11
2018-04-12T23:38:19.419Z,15.05
2018-04-12T23:40:47.002Z,15.02
2018-04-12T23:43:14.551Z,15.08
2018-04-12T23:45:42.162Z,15.10
2018-04-12T23:48:09.802Z,15.18
2018-04-12T23:50:37.356Z,15.21
2018-04-12T23:53:04.916Z,15.13
2018-04-12T23:55:32.477Z,15.07
2018-04-12T23:58:00.044Z,15.08
